Time;durP1;ratioP1;P1;durP2;ratioP2;P2;SDS_P1;SDS_P2;PMS_P1;PMS_P2;Temp;Humidity;BMP_temperature;BMP_pressure;BME280_temperature;BME280_humidity;BME280_pressure;Samples;Min_cycle;Max_cycle;Signal;HPM_P1;HPM_P2
2022/09/11 00:01:26;;;;;;;12.77;8.47;;;;;;;14.37;100.00;100808.56;5054117;28;20507;-73
2022/09/11 00:03:53;;;;;;;13.27;7.60;;;;;;;14.38;100.00;100810.97;5053437;28;20462;-68
2022/09/11 00:06:20;;;;;;;12.30;8.00;;;;;;;14.37;100.00;100811.28;5053344;28;20446;-68
2022/09/11 00:08:48;;;;;;;11.40;7.53;;;;;;;14.35;100.00;100810.84;5053388;28;20439;-69
2022/09/11 00:11:17;;;;;;;12.67;7.77;;;;;;;14.24;100.00;100818.50;5052813;28;20885;-68
2022/09/11 00:13:45;;;;;;;11.70;7.10;;;;;;;14.28;100.00;100819.47;5052937;28;21077;-68
2022/09/11 00:16:19;;;;;;;10.63;7.23;;;;;;;14.32;100.00;100816.91;5053311;28;20442;-68
2022/09/11 00:18:47;;;;;;;13.03;6.87;;;;;;;14.30;100.00;100817.25;5053465;28;20466;-70
2022/09/11 00:21:15;;;;;;;13.20;8.20;;;;;;;14.33;100.00;100819.31;5053456;28;20457;-68
2022/09/11 00:23:41;;;;;;;12.50;7.30;;;;;;;14.28;100.00;100811.28;5053105;28;20492;-68
2022/09/11 00:26:08;;;;;;;13.90;7.50;;;;;;;14.25;100.00;100811.13;5053078;28;20442;-70
2022/09/11 00:28:35;;;;;;;11.90;5.80;;;;;;;14.29;100.00;100802.00;5052844;28;20522;-68
2022/09/11 00:31:04;;;;;;;11.70;6.60;;;;;;;14.32;100.00;100806.00;5053175;28;20481;-68
2022/09/11 00:33:32;;;;;;;9.97;5.90;;;;;;;14.29;100.00;100807.44;5053079;28;20538;-69
2022/09/11 00:36:03;;;;;;;11.07;5.90;;;;;;;14.27;100.00;100814.34;5052789;28;21027;-68
2022/09/11 00:38:32;;;;;;;10.50;5.07;;;;;;;14.27;100.00;100812.44;5053268;28;20470;-68
2022/09/11 00:41:01;;;;;;;8.03;5.27;;;;;;;14.26;100.00;100818.19;5053023;28;20449;-68
2022/09/11 00:43:29;;;;;;;10.00;4.70;;;;;;;14.23;100.00;100813.38;5052975;28;20450;-68
2022/09/11 00:45:59;;;;;;;10.30;5.10;;;;;;;14.27;100.00;100811.63;5052966;28;20465;-68
2022/09/11 00:48:30;;;;;;;7.37;3.87;;;;;;;14.30;100.00;100806.34;5052924;28;20500;-68
2022/09/11 00:50:58;;;;;;;9.50;4.57;;;;;;;14.43;100.00;100818.19;5053023;28;20464;-68
2022/09/11 00:53:30;;;;;;;7.00;3.43;;;;;;;14.47;100.00;100823.78;5053159;28;20442;-69
2022/09/11 00:56:01;;;;;;;8.70;3.73;;;;;;;14.47;100.00;100824.59;5053016;28;20441;-68
2022/09/11 00:58:32;;;;;;;6.20;3.37;;;;;;;14.38;100.00;100819.16;5052605;28;20477;-68
2022/09/11 01:00:58;;;;;;;6.43;2.93;;;;;;;14.34;100.00;100809.22;5052988;28;20422;-68
2022/09/11 01:03:26;;;;;;;5.30;3.10;;;;;;;14.39;100.00;100818.03;5052823;28;20446;-68
2022/09/11 01:05:54;;;;;;;7.10;3.50;;;;;;;14.43;100.00;100822.84;5052816;28;20462;-68
2022/09/11 01:08:21;;;;;;;6.10;3.03;;;;;;;14.46;100.00;100823.00;5052857;28;20446;-68
2022/09/11 01:11:02;;;;;;;9.20;3.60;;;;;;;14.37;100.00;100825.72;5053047;28;20442;-68
2022/09/11 01:13:35;;;;;;;11.87;2.60;;;;;;;14.28;100.00;100819.47;5052809;28;20458;-69
2022/09/11 01:16:12;;;;;;;6.53;2.97;;;;;;;14.40;100.00;100824.28;5052808;28;20429;-68
2022/09/11 01:18:46;;;;;;;5.80;2.93;;;;;;;14.43;100.00;100818.19;5052372;28;20818;-69
2022/09/11 01:21:41;;;;;;;6.40;3.60;;;;;;;14.38;100.00;100827.31;5052809;28;20439;-69
2022/09/11 01:24:19;;;;;;;11.57;3.47;;;;;;;14.25;100.00;100814.66;5054604;28;20488;-71
2022/09/11 01:27:07;;;;;;;6.83;3.90;;;;;;;14.25;100.00;100822.81;5056688;28;20430;-70
2022/09/11 01:29:43;;;;;;;9.67;4.50;;;;;;;14.19;100.00;100820.59;5056457;28;20437;-70
2022/09/11 01:32:19;;;;;;;7.33;3.73;;;;;;;14.17;100.00;100820.91;5056465;28;20414;-70
2022/09/11 01:34:52;;;;;;;8.27;3.13;;;;;;;14.14;100.00;100821.56;5056163;28;20465;-70
2022/09/11 01:37:24;;;;;;;8.27;3.80;;;;;;;14.27;100.00;100820.59;5056292;28;20485;-70
2022/09/11 01:40:03;;;;;;;7.03;3.30;;;;;;;14.23;100.00;100822.34;5056284;28;20430;-70
2022/09/11 01:42:33;;;;;;;8.67;3.27;;;;;;;14.30;100.00;100822.69;5056291;28;20465;-70
2022/09/11 01:45:03;;;;;;;5.27;3.10;;;;;;;14.25;100.00;100822.03;5056137;28;20506;-70
2022/09/11 01:47:33;;;;;;;9.13;4.07;;;;;;;14.14;100.00;100825.06;5056142;28;20434;-71
2022/09/11 01:50:03;;;;;;;6.00;3.30;;;;;;;14.18;100.00;100827.97;5056053;28;20438;-70
2022/09/11 01:52:35;;;;;;;6.60;3.73;;;;;;;14.14;100.00;100824.28;5056311;28;20438;-70
2022/09/11 01:55:09;;;;;;;7.07;3.33;;;;;;;14.08;100.00;100826.34;5056012;28;20470;-70
2022/09/11 01:57:40;;;;;;;7.53;4.37;;;;;;;14.06;100.00;100833.22;5055663;28;20974;-71
2022/09/11 02:00:12;;;;;;;8.10;3.80;;;;;;;14.09;100.00;100827.16;5055853;28;20434;-70
2022/09/11 02:02:42;;;;;;;6.00;3.07;;;;;;;14.15;100.00;100836.78;5055585;28;20981;-71
2022/09/11 02:05:14;;;;;;;5.40;2.70;;;;;;;14.02;100.00;100829.53;5055420;28;20976;-70
2022/09/11 02:07:45;;;;;;;7.43;3.73;;;;;;;14.04;100.00;100830.84;5055737;28;20493;-69
2022/09/11 02:10:16;;;;;;;6.20;3.13;;;;;;;14.11;100.00;100830.34;5055383;28;20943;-69
2022/09/11 02:12:47;;;;;;;9.77;4.23;;;;;;;14.09;100.00;100838.06;5055734;28;20860;-70
2022/09/11 02:15:16;;;;;;;8.87;4.53;;;;;;;14.01;100.00;100845.09;5055612;28;20474;-70
2022/09/11 02:17:49;;;;;;;6.60;3.77;;;;;;;13.96;100.00;100841.72;5055459;28;20489;-70
2022/09/11 02:20:16;;;;;;;7.03;3.23;;;;;;;13.89;100.00;100842.97;5055212;28;20940;-70
2022/09/11 02:22:43;;;;;;;6.10;2.50;;;;;;;13.95;100.00;100840.13;5055485;28;20449;-70
2022/09/11 02:25:10;;;;;;;8.90;3.50;;;;;;;13.97;100.00;100843.31;5055295;28;20488;-70
2022/09/11 02:27:37;;;;;;;11.70;3.93;;;;;;;13.85;100.00;100843.91;5055363;28;20457;-70
2022/09/11 02:30:04;;;;;;;5.63;3.00;;;;;;;13.78;100.00;100841.66;5055338;28;20446;-70
2022/09/11 02:32:33;;;;;;;7.67;3.47;;;;;;;13.71;100.00;100835.06;5055228;28;20442;-69
2022/09/11 02:35:00;;;;;;;6.10;3.67;;;;;;;13.82;100.00;100837.19;5054761;28;20478;-70
2022/09/11 02:37:39;;;;;;;6.53;2.90;;;;;;;13.81;100.00;100837.50;5055125;28;20450;-70
2022/09/11 02:40:18;;;;;;;6.17;2.80;;;;;;;13.73;100.00;100843.75;5055455;28;20437;-71
2022/09/11 02:43:01;;;;;;;7.23;3.53;;;;;;;13.69;100.00;100837.31;5055107;28;20813;-70
2022/09/11 02:45:40;;;;;;;6.50;2.63;;;;;;;13.68;100.00;100841.97;5054999;28;20535;-67
2022/09/11 02:48:21;;;;;;;7.20;3.30;;;;;;;13.69;100.00;100843.56;5055032;28;20450;-71
2022/09/11 02:50:53;;;;;;;8.00;3.60;;;;;;;13.70;100.00;100849.81;5054648;28;20977;-70
2022/09/11 02:53:26;;;;;;;7.73;3.73;;;;;;;13.71;100.00;100845.97;5054571;28;20926;-70
2022/09/11 02:56:00;;;;;;;6.77;3.40;;;;;;;13.71;100.00;100846.75;5054804;28;20454;-70
2022/09/11 02:58:32;;;;;;;10.60;3.97;;;;;;;13.67;100.00;100845.78;5054512;28;20971;-69
2022/09/11 03:01:00;;;;;;;6.80;3.47;;;;;;;13.58;100.00;100853.13;5054803;28;20419;-69
2022/09/11 03:03:36;;;;;;;7.37;3.27;;;;;;;13.53;100.00;100859.50;5054655;28;20437;-71
2022/09/11 03:06:03;;;;;;;6.83;3.13;;;;;;;13.51;100.00;100861.75;5054735;28;20430;-70
2022/09/11 03:08:30;;;;;;;7.60;3.70;;;;;;;13.57;100.00;100865.13;5054569;28;20442;-70
2022/09/11 03:10:56;;;;;;;6.93;2.73;;;;;;;13.69;100.00;100870.78;5055394;28;20442;-78
2022/09/11 03:13:23;;;;;;;5.40;2.90;;;;;;;13.70;100.00;100872.38;5055162;28;20434;-70
2022/09/11 03:15:50;;;;;;;6.23;3.00;;;;;;;13.80;100.00;100876.75;5054391;28;20458;-70
2022/09/11 03:18:16;;;;;;;6.97;3.50;;;;;;;13.89;100.00;100872.91;5054093;28;20485;-70
2022/09/11 03:20:46;;;;;;;6.67;3.67;;;;;;;13.93;100.00;100881.25;5054397;28;20442;-70
2022/09/11 03:23:13;;;;;;;7.20;4.00;;;;;;;14.01;100.00;100879.69;5054456;28;20454;-70
2022/09/11 03:25:40;;;;;;;8.40;3.93;;;;;;;14.06;100.00;100885.00;5053909;28;20466;-68
2022/09/11 03:28:07;;;;;;;6.57;3.77;;;;;;;14.12;100.00;100883.72;5054139;28;20442;-71
2022/09/11 03:30:33;;;;;;;9.00;4.10;;;;;;;14.23;100.00;100895.13;5054106;28;20438;-71
2022/09/11 03:33:00;;;;;;;17.60;4.73;;;;;;;14.28;100.00;100903.94;5054090;28;20512;-70
2022/09/11 03:35:26;;;;;;;14.00;5.40;;;;;;;14.32;100.00;100904.91;5053659;28;20568;-70
2022/09/11 03:37:54;;;;;;;9.77;4.67;;;;;;;14.40;100.00;100906.06;5053948;28;20525;-71
2022/09/11 03:40:22;;;;;;;8.70;5.20;;;;;;;14.37;100.00;100906.69;5053640;28;21011;-71
2022/09/11 03:42:48;;;;;;;11.43;5.67;;;;;;;14.29;100.00;100913.72;5053945;28;20449;-71
2022/09/11 03:45:15;;;;;;;13.73;5.70;;;;;;;14.21;100.00;100917.25;5054006;28;20858;-70
2022/09/11 03:47:41;;;;;;;12.20;5.67;;;;;;;14.20;100.00;100926.53;5053390;28;20446;-70
2022/09/11 03:50:09;;;;;;;10.93;6.10;;;;;;;14.17;100.00;100915.47;5053876;28;20442;-70
2022/09/11 03:52:36;;;;;;;10.50;5.77;;;;;;;14.14;100.00;100919.63;5053752;28;20820;-70
2022/09/11 03:55:04;;;;;;;13.70;6.20;;;;;;;14.14;100.00;100919.63;5053507;28;20486;-68
2022/09/11 03:57:32;;;;;;;15.93;5.37;;;;;;;14.16;100.00;100917.38;5053676;28;20442;-70
2022/09/11 04:00:00;;;;;;;11.00;6.20;;;;;;;14.21;100.00;100919.97;5053272;28;21065;-69
2022/09/11 04:02:26;;;;;;;16.43;5.80;;;;;;;14.23;100.00;100925.09;5053531;28;20454;-69
2022/09/11 04:04:53;;;;;;;10.97;4.70;;;;;;;14.26;100.00;100924.47;5053477;28;20454;-69
2022/09/11 04:07:19;;;;;;;11.50;5.87;;;;;;;14.31;100.00;100925.13;5053316;28;20434;-69
2022/09/11 04:09:46;;;;;;;13.30;4.70;;;;;;;14.31;100.00;100924.31;5053402;28;20446;-70
2022/09/11 04:12:14;;;;;;;10.83;5.43;;;;;;;14.35;100.00;100928.81;5053403;28;20529;-70
2022/09/11 04:14:40;;;;;;;9.27;5.17;;;;;;;14.38;100.00;100927.34;5053382;28;20545;-70
2022/09/11 04:17:08;;;;;;;12.73;5.00;;;;;;;14.45;100.00;100930.44;5053330;28;20450;-71
2022/09/11 04:19:35;;;;;;;16.17;6.50;;;;;;;14.36;100.00;100926.88;5053141;28;20466;-71
2022/09/11 04:22:02;;;;;;;14.03;5.60;;;;;;;14.37;100.00;100926.56;5053256;28;20434;-70
2022/09/11 04:24:29;;;;;;;10.63;5.47;;;;;;;14.32;100.00;100924.00;5053191;28;20470;-71
2022/09/11 04:26:55;;;;;;;14.77;5.47;;;;;;;14.41;100.00;100934.91;5053220;28;20446;-70
2022/09/11 04:29:23;;;;;;;15.43;5.50;;;;;;;14.44;100.00;100934.28;5053573;28;20446;-70
2022/09/11 04:31:50;;;;;;;13.80;5.50;;;;;;;14.50;100.00;100934.94;5053052;28;20788;-71
2022/09/11 04:34:16;;;;;;;12.40;5.73;;;;;;;14.58;100.00;100945.06;5052674;28;20991;-70
2022/09/11 04:36:43;;;;;;;12.60;4.80;;;;;;;14.64;100.00;100935.59;5053092;28;20442;-70
2022/09/11 04:39:10;;;;;;;11.93;5.73;;;;;;;14.69;100.00;100935.44;5052781;28;20926;-72
2022/09/11 04:41:37;;;;;;;9.90;5.37;;;;;;;14.69;100.00;100940.09;5053200;28;20434;-72
2022/09/11 04:44:04;;;;;;;16.53;5.40;;;;;;;14.71;100.00;100943.31;5053054;28;20588;-74
2022/09/11 04:46:32;;;;;;;13.13;5.90;;;;;;;14.73;100.00;100932.88;5052778;28;20449;-72
2022/09/11 04:48:59;;;;;;;15.37;5.17;;;;;;;14.80;100.00;100939.47;5052719;28;20882;-71
2022/09/11 04:51:28;;;;;;;12.73;4.87;;;;;;;14.82;100.00;100939.94;5053395;28;20442;-77
2022/09/11 04:53:57;;;;;;;13.57;7.47;;;;;;;14.82;100.00;100934.47;5053356;28;20473;-78
2022/09/11 04:56:25;;;;;;;12.83;5.30;;;;;;;14.85;100.00;100939.31;5055653;28;20529;-76
2022/09/11 04:58:55;;;;;;;17.50;6.03;;;;;;;14.87;100.00;100931.63;5054426;28;20481;-74
2022/09/11 05:01:23;;;;;;;13.73;5.20;;;;;;;14.85;100.00;100928.41;5056916;28;20447;-71
2022/09/11 05:03:51;;;;;;;9.93;5.53;;;;;;;14.87;100.00;100931.63;5056916;28;20866;-72
2022/09/11 05:06:18;;;;;;;12.43;5.93;;;;;;;14.85;100.00;100933.84;5056931;28;20446;-71
2022/09/11 05:08:45;;;;;;;15.10;6.90;;;;;;;14.89;100.00;100940.28;5056802;28;20449;-71
2022/09/11 05:11:13;;;;;;;13.87;6.37;;;;;;;14.92;100.00;100938.00;5056738;28;20434;-71
2022/09/11 05:13:40;;;;;;;16.90;5.83;;;;;;;14.93;100.00;100942.38;5056347;28;20939;-71
2022/09/11 05:16:09;;;;;;;18.40;6.10;;;;;;;14.90;100.00;100951.97;5056451;28;20975;-72
2022/09/11 05:18:35;;;;;;;13.70;6.70;;;;;;;14.93;100.00;100947.81;5056338;28;20999;-75
2022/09/11 05:21:05;;;;;;;14.70;5.70;;;;;;;14.89;100.00;100962.09;5056969;28;20446;-77
2022/09/11 05:23:33;;;;;;;15.70;6.13;;;;;;;14.95;100.00;100956.47;5056439;28;20442;-71
2022/09/11 05:26:01;;;;;;;20.07;6.00;;;;;;;15.05;100.00;100956.13;5056466;28;20445;-71
2022/09/11 05:28:28;;;;;;;13.27;6.60;;;;;;;15.07;100.00;100954.72;5056158;28;20970;-73
2022/09/11 05:30:56;;;;;;;17.63;6.90;;;;;;;15.09;100.00;100960.63;5056513;28;20537;-70
2022/09/11 05:33:23;;;;;;;13.17;6.00;;;;;;;15.05;100.00;100958.88;5056065;28;20446;-70
2022/09/11 05:35:50;;;;;;;16.47;6.37;;;;;;;15.10;100.00;100973.16;5057352;28;20855;-70
2022/09/11 05:38:19;;;;;;;15.10;6.40;;;;;;;15.13;100.00;100971.72;5056285;28;20446;-70
2022/09/11 05:40:47;;;;;;;21.20;7.10;;;;;;;15.18;100.00;100978.94;5056221;28;20539;-70
2022/09/11 05:43:14;;;;;;;17.67;6.87;;;;;;;15.24;100.00;100981.19;5056127;28;20446;-71
2022/09/11 05:45:41;;;;;;;20.03;7.87;;;;;;;15.25;100.00;100992.91;5056051;28;20473;-70
2022/09/11 05:48:08;;;;;;;20.23;7.07;;;;;;;15.31;100.00;100989.66;5056089;28;20464;-69
2022/09/11 05:50:34;;;;;;;19.07;8.03;;;;;;;15.31;100.00;100995.13;5056098;28;20437;-68
2022/09/11 05:53:01;;;;;;;19.83;6.30;;;;;;;15.31;100.00;100995.13;5055676;28;20449;-69
2022/09/11 05:55:28;;;;;;;20.00;8.17;;;;;;;15.39;100.00;100998.97;5055802;28;20531;-68
2022/09/11 05:57:55;;;;;;;13.23;6.00;;;;;;;15.45;100.00;101002.34;5055892;28;20469;-68
2022/09/11 06:00:22;;;;;;;20.13;7.43;;;;;;;15.51;100.00;101007.31;5055805;28;20580;-68
2022/09/11 06:02:48;;;;;;;16.30;8.33;;;;;;;15.56;100.00;101012.59;5055738;28;20449;-68
2022/09/11 06:05:15;;;;;;;16.10;7.30;;;;;;;15.56;100.00;101015.34;5055752;28;20470;-68
2022/09/11 06:07:41;;;;;;;19.37;7.63;;;;;;;15.61;100.00;101022.56;5055719;28;20442;-69
2022/09/11 06:10:09;;;;;;;17.47;7.80;;;;;;;15.68;100.00;101025.63;5055307;28;20447;-70
2022/09/11 06:12:36;;;;;;;15.13;7.97;;;;;;;15.63;100.00;101018.38;5055596;28;20445;-70
2022/09/11 06:15:03;;;;;;;17.10;7.60;;;;;;;15.59;100.00;101033.00;5055737;28;20834;-70
2022/09/11 06:17:30;;;;;;;19.10;8.00;;;;;;;15.70;100.00;101022.56;5055266;28;20936;-69
2022/09/11 06:19:56;;;;;;;23.80;8.27;;;;;;;15.82;100.00;101031.72;5055387;28;20486;-69
2022/09/11 06:22:23;;;;;;;16.73;7.53;;;;;;;15.88;100.00;101030.41;5055434;28;20438;-69
2022/09/11 06:24:49;;;;;;;19.80;7.70;;;;;;;15.88;100.00;101043.25;5055348;28;20523;-69
2022/09/11 06:27:15;;;;;;;24.27;10.20;;;;;;;15.80;100.00;101044.88;5055309;28;20449;-68
2022/09/11 06:29:43;;;;;;;20.30;8.60;;;;;;;15.82;100.00;101050.84;5055004;28;20985;-68
2022/09/11 06:32:10;;;;;;;15.43;8.07;;;;;;;15.91;100.00;101044.53;5055326;28;20478;-68
2022/09/11 06:34:37;;;;;;;15.43;7.17;;;;;;;15.95;100.00;101051.75;5054909;28;20478;-68
2022/09/11 06:37:04;;;;;;;18.33;9.10;;;;;;;16.04;100.00;101060.75;5055142;28;20438;-68
2022/09/11 06:39:30;;;;;;;16.47;8.67;;;;;;;16.08;100.00;101055.44;5054952;28;20478;-70
2022/09/11 06:41:56;;;;;;;15.93;8.40;;;;;;;16.16;100.00;101057.34;5055160;28;20454;-71
2022/09/11 06:44:26;;;;;;;23.90;8.30;;;;;;;16.16;100.00;101062.81;5055089;28;20528;-71
2022/09/11 06:46:53;;;;;;;23.83;8.30;;;;;;;16.19;100.00;101061.31;5054970;28;20504;-71
2022/09/11 06:49:20;;;;;;;12.20;6.53;;;;;;;16.28;100.00;101054.69;5055006;28;20443;-71
2022/09/11 06:51:46;;;;;;;15.50;6.83;;;;;;;16.32;100.00;101055.66;5055120;28;20492;-71
2022/09/11 06:54:13;;;;;;;17.03;8.30;;;;;;;16.39;100.00;101058.69;5054747;28;20549;-70
2022/09/11 06:56:39;;;;;;;17.03;7.00;;;;;;;16.39;100.00;101057.88;5054653;28;20935;-70
2022/09/11 06:59:06;;;;;;;14.20;7.30;;;;;;;16.43;100.00;101056.09;5054430;28;20774;-71
2022/09/11 07:01:32;;;;;;;12.23;6.70;;;;;;;16.48;100.00;101057.84;5054671;28;20533;-70
2022/09/11 07:04:01;;;;;;;17.50;6.20;;;;;;;16.53;100.00;101066.66;5054580;28;20469;-70
2022/09/11 07:06:30;;;;;;;15.43;7.17;;;;;;;16.54;100.00;101064.72;5054399;28;20970;-70
2022/09/11 07:08:59;;;;;;;17.17;8.20;;;;;;;16.52;100.00;101069.72;5054302;28;20473;-71
2022/09/11 07:11:26;;;;;;;21.47;6.77;;;;;;;16.50;100.00;101067.31;5054157;28;20972;-70
2022/09/11 07:13:53;;;;;;;15.17;6.23;;;;;;;16.58;100.00;101066.47;5054403;28;20462;-70
2022/09/11 07:16:20;;;;;;;16.00;7.67;;;;;;;16.65;100.00;101064.03;5054375;28;21008;-71
2022/09/11 07:18:47;;;;;;;18.43;8.20;;;;;;;16.71;100.00;101077.50;5054429;28;20441;-70
2022/09/11 07:21:17;;;;;;;12.90;6.70;;;;;;;16.74;100.00;101069.47;5053193;28;20480;-69
2022/09/11 07:23:47;;;;;;;13.07;6.73;;;;;;;16.79;100.00;101074.75;5054158;28;20449;-69
2022/09/11 07:26:13;;;;;;;15.90;6.40;;;;;;;16.76;100.00;101069.16;5054120;28;20442;-70
2022/09/11 07:28:40;;;;;;;18.17;7.47;;;;;;;16.80;100.00;101079.09;5054083;28;20491;-69
2022/09/11 07:31:10;;;;;;;17.43;7.57;;;;;;;16.86;100.00;101069.53;5053705;28;20445;-71
2022/09/11 07:33:37;;;;;;;19.03;8.03;;;;;;;16.94;100.00;101067.91;5053845;28;20966;-71
2022/09/11 07:36:10;;;;;;;13.80;7.00;;;;;;;16.94;100.00;101070.63;5053992;28;20439;-70
2022/09/11 07:38:39;;;;;;;17.70;6.90;;;;;;;17.00;100.00;101071.22;5054003;28;20446;-69
2022/09/11 07:41:07;;;;;;;15.00;7.20;;;;;;;17.04;100.00;101074.91;5053889;28;20521;-71
2022/09/11 07:43:34;;;;;;;17.87;6.53;;;;;;;17.09;100.00;101085.69;5053837;28;20446;-71
2022/09/11 07:46:01;;;;;;;16.10;6.80;;;;;;;17.15;100.00;101082.41;5053830;28;20446;-69
2022/09/11 07:48:28;;;;;;;17.63;6.83;;;;;;;17.29;100.00;101082.13;5053688;28;20442;-70
2022/09/11 07:50:56;;;;;;;13.37;6.70;;;;;;;17.46;100.00;101078.47;5053714;28;20450;-69
2022/09/11 07:53:23;;;;;;;15.30;6.57;;;;;;;17.56;100.00;101082.72;5053374;28;20806;-70
2022/09/11 07:55:50;;;;;;;12.03;4.67;;;;;;;17.59;100.00;101088.34;5053215;28;20528;-69
2022/09/11 07:58:17;;;;;;;11.93;5.63;;;;;;;17.60;100.00;101086.41;5053506;28;20457;-68
2022/09/11 08:00:44;;;;;;;16.73;6.43;;;;;;;17.58;100.00;101099.66;5053464;28;20576;-69
2022/09/11 08:03:10;;;;;;;12.87;6.57;;;;;;;17.59;100.00;101096.56;5053717;28;20437;-70
2022/09/11 08:05:37;;;;;;;12.80;5.97;;;;;;;17.51;100.00;101097.44;5053520;28;20485;-69
2022/09/11 08:08:03;;;;;;;10.87;5.50;;;;;;;17.57;100.00;101093.34;5053502;28;20817;-69
2022/09/11 08:10:30;;;;;;;17.23;7.07;;;;;;;17.71;100.00;101097.72;5053079;28;20994;-69
2022/09/11 08:12:59;;;;;;;14.50;6.63;;;;;;;17.76;100.00;101106.59;5053115;28;20446;-69
2022/09/11 08:15:26;;;;;;;16.17;7.63;;;;;;;17.86;100.00;101099.88;5053008;28;20466;-69
2022/09/11 08:17:53;;;;;;;16.57;7.30;;;;;;;17.80;99.27;101096.56;5053278;28;20823;-69
2022/09/11 08:20:19;;;;;;;11.90;6.30;;;;;;;17.88;99.22;101106.66;5053259;28;20521;-69
2022/09/11 08:22:45;;;;;;;12.73;5.23;;;;;;;18.01;98.47;101117.63;5053286;28;20442;-69
2022/09/11 08:25:12;;;;;;;14.27;6.57;;;;;;;18.06;98.22;101117.41;5053192;28;20462;-69
2022/09/11 08:27:39;;;;;;;16.30;5.83;;;;;;;18.15;97.48;101118.16;5053220;28;20438;-69
2022/09/11 08:30:08;;;;;;;12.67;4.80;;;;;;;18.09;97.19;101123.03;5053165;28;20822;-71
2022/09/11 08:32:35;;;;;;;10.50;5.97;;;;;;;18.08;98.13;101120.63;5053320;28;20447;-75
2022/09/11 08:35:01;;;;;;;14.50;6.07;;;;;;;18.10;97.13;101132.03;5053295;28;20482;-73
2022/09/11 08:37:28;;;;;;;14.30;6.63;;;;;;;18.01;96.33;101129.41;5053324;28;20446;-71
2022/09/11 08:39:54;;;;;;;11.13;5.57;;;;;;;17.95;97.10;101130.75;5053016;28;20555;-71
2022/09/11 08:42:20;;;;;;;12.33;5.57;;;;;;;18.15;97.80;101135.41;5053178;28;20453;-69
2022/09/11 08:44:50;;;;;;;12.30;4.47;;;;;;;18.41;97.22;101131.53;5053003;28;20512;-71
2022/09/11 08:47:23;;;;;;;10.90;5.43;;;;;;;18.41;95.06;101128.81;5053370;28;20446;-72
2022/09/11 08:49:56;;;;;;;9.03;5.00;;;;;;;18.45;94.30;101123.44;5053167;28;20505;-71
2022/09/11 08:52:23;;;;;;;14.27;4.80;;;;;;;18.44;95.42;101136.34;5053202;28;20441;-75
2022/09/11 08:54:49;;;;;;;10.83;4.80;;;;;;;18.58;95.10;101128.59;5052988;28;20466;-70
2022/09/11 08:57:20;;;;;;;16.83;5.87;;;;;;;18.73;95.31;101132.66;5052913;28;20446;-72
2022/09/11 09:00:04;;;;;;;7.60;3.87;;;;;;;18.83;92.72;101121.22;5052691;28;20979;-71
2022/09/11 09:03:07;;;;;;;9.80;4.87;;;;;;;18.97;92.46;101120.84;5052981;28;20432;-72
2022/09/11 09:05:44;;;;;;;11.87;5.27;;;;;;;19.16;92.26;101125.75;5050782;28;20482;-72
2022/09/11 09:08:34;;;;;;;11.70;5.87;;;;;;;19.21;91.16;101133.75;5052610;28;20484;-72
2022/09/11 09:11:09;;;;;;;12.87;6.10;;;;;;;19.22;90.80;101129.88;5052781;28;20434;-73
2022/09/11 09:13:51;;;;;;;16.53;5.43;;;;;;;19.21;90.70;101131.00;5052588;28;20430;-72
2022/09/11 09:16:33;;;;;;;7.30;4.30;;;;;;;19.24;90.59;101135.81;5052797;28;20434;-73
2022/09/11 09:19:06;;;;;;;13.23;5.03;;;;;;;19.33;90.72;101139.22;5052859;28;20445;-73
2022/09/11 09:21:40;;;;;;;12.00;4.70;;;;;;;19.40;91.64;101144.94;5052621;28;20473;-72
2022/09/11 09:24:18;;;;;;;8.43;4.53;;;;;;;19.11;87.55;101136.97;5052763;28;20458;-73
2022/09/11 09:26:48;;;;;;;10.90;5.20;;;;;;;18.92;89.66;101147.75;5052440;28;20831;-72
2022/09/11 09:29:21;;;;;;;8.93;4.53;;;;;;;18.88;90.71;101147.63;5052378;28;20426;-74
2022/09/11 09:31:51;;;;;;;10.70;4.73;;;;;;;18.97;90.81;101142.81;5052782;28;20457;-73
2022/09/11 09:34:20;;;;;;;14.90;4.37;;;;;;;19.14;89.39;101147.28;5052190;28;20520;-73
2022/09/11 09:36:55;;;;;;;12.90;4.77;;;;;;;19.12;88.87;101141.31;5052701;28;20442;-73
2022/09/11 09:39:22;;;;;;;10.57;4.83;;;;;;;19.27;88.29;101143.38;5052589;28;20426;-73
2022/09/11 09:42:11;;;;;;;8.30;3.93;;;;;;;19.53;86.25;101142.16;5052486;28;20573;-73
2022/09/11 09:44:53;;;;;;;9.03;4.40;;;;;;;19.80;84.88;101135.91;5053455;28;20470;-72
2022/09/11 09:47:20;;;;;;;8.63;3.47;;;;;;;19.80;83.45;101138.66;5055838;28;20850;-74
2022/09/11 09:49:46;;;;;;;8.00;3.80;;;;;;;19.89;85.10;101135.75;5055839;28;20504;-73
2022/09/11 09:52:19;;;;;;;8.67;4.17;;;;;;;19.86;84.49;101156.50;5056470;28;20879;-72
2022/09/11 09:54:54;;;;;;;9.70;5.10;;;;;;;19.56;84.48;101155.19;5056386;28;20477;-73
2022/09/11 09:57:24;;;;;;;12.27;3.87;;;;;;;19.56;84.48;101144.19;5055588;28;20942;-73
2022/09/11 09:59:55;;;;;;;8.90;4.33;;;;;;;19.49;84.49;101155.00;5055700;28;20453;-73
2022/09/11 10:02:40;;;;;;;9.27;3.40;;;;;;;19.60;84.35;101148.69;5055966;28;20430;-73
2022/09/11 10:05:17;;;;;;;8.50;4.23;;;;;;;19.73;83.58;101149.44;5055378;28;21041;-73
2022/09/11 10:07:50;;;;;;;8.37;4.27;;;;;;;19.87;85.59;101152.59;5055844;28;20781;-73
2022/09/11 10:10:23;;;;;;;7.10;4.13;;;;;;;19.98;82.49;101152.91;5055460;28;20839;-73
2022/09/11 10:12:50;;;;;;;10.37;4.20;;;;;;;19.87;82.22;101152.59;5055813;28;20427;-73
2022/09/11 10:15:21;;;;;;;6.53;3.43;;;;;;;19.91;82.95;101153.47;5055596;28;20458;-72
2022/09/11 10:17:52;;;;;;;9.30;4.23;;;;;;;19.73;84.80;101149.44;5055631;28;20434;-72
2022/09/11 10:20:25;;;;;;;8.20;3.63;;;;;;;19.62;85.29;101154.66;5055251;28;20482;-73
2022/09/11 10:22:54;;;;;;;6.10;2.90;;;;;;;19.33;86.48;101163.16;5055714;28;20426;-72
2022/09/11 10:25:25;;;;;;;9.67;3.83;;;;;;;19.52;87.33;101155.09;5055093;28;20458;-72
2022/09/11 10:28:02;;;;;;;9.87;4.10;;;;;;;19.78;85.53;101154.69;5055461;28;20430;-74
2022/09/11 10:30:31;;;;;;;8.90;3.63;;;;;;;19.97;85.09;101156.00;5055500;28;20427;-72
2022/09/11 10:32:59;;;;;;;7.93;3.70;;;;;;;19.95;84.78;101156.34;5055490;28;20450;-75
2022/09/11 10:35:26;;;;;;;8.27;4.20;;;;;;;20.06;85.10;101160.19;5054830;28;20474;-74
2022/09/11 10:38:16;;;;;;;6.20;3.00;;;;;;;20.27;81.75;101154.44;5055596;28;20947;-73
2022/09/11 10:40:53;;;;;;;7.60;3.63;;;;;;;20.53;79.87;101161.44;5055226;28;20474;-72
2022/09/11 10:43:23;;;;;;;6.90;3.27;;;;;;;20.80;79.46;101160.53;5055240;28;20442;-71
2022/09/11 10:46:06;;;;;;;7.77;3.00;;;;;;;20.98;79.99;101157.41;5055080;28;20552;-72
2022/09/11 10:48:32;;;;;;;7.70;2.63;;;;;;;21.11;76.92;101156.94;5054716;28;20437;-73
2022/09/11 10:51:06;;;;;;;5.37;2.63;;;;;;;21.23;77.70;101164.31;5054938;28;20915;-73
2022/09/11 10:53:45;;;;;;;5.30;2.57;;;;;;;20.95;77.18;101158.94;5055261;28;20446;-73
2022/09/11 10:56:12;;;;;;;7.13;2.90;;;;;;;20.69;79.50;101173.25;5054769;28;20427;-72
2022/09/11 10:58:42;;;;;;;4.70;2.13;;;;;;;20.70;80.33;101168.56;5054949;28;20820;-72
2022/09/11 11:01:09;;;;;;;8.27;3.40;;;;;;;20.58;78.63;101170.22;5054448;28;20842;-74
2022/09/11 11:03:35;;;;;;;5.33;2.77;;;;;;;20.66;78.50;101166.50;5054655;28;20525;-73
2022/09/11 11:06:12;;;;;;;4.20;1.80;;;;;;;20.87;79.62;101169.00;5054368;28;20954;-72
2022/09/11 11:08:59;;;;;;;6.63;3.00;;;;;;;21.03;77.54;101168.16;5054671;28;20430;-71
2022/09/11 11:11:39;;;;;;;8.73;2.83;;;;;;;20.85;78.22;101176.81;5054278;28;20431;-69
2022/09/11 11:14:42;;;;;;;5.40;2.60;;;;;;;20.34;77.77;101170.38;5054480;28;20517;-73
2022/09/11 11:17:21;;;;;;;5.77;2.90;;;;;;;20.01;80.22;101176.13;5054506;28;20437;-73
2022/09/11 11:20:04;;;;;;;4.80;2.30;;;;;;;19.91;80.70;101178.22;5054458;28;20464;-69
2022/09/11 11:22:51;;;;;;;6.10;2.63;;;;;;;19.87;82.17;101168.28;5054410;28;20553;-68
2022/09/11 11:25:25;;;;;;;6.27;2.27;;;;;;;19.83;82.33;101172.88;5054680;28;20466;-76
2022/09/11 11:28:17;;;;;;;5.90;3.17;;;;;;;19.85;82.48;101173.34;5054942;28;20434;-75